KELM

Elmira / Corning Regional Airport

Elmira/Corning, New York, USA
METAR KELM 250453Z AUTO 00000KT 10SM CLR 12/10 A3009 RMK AO2 SLP184 T01170100 402890083
Observed Flight Rules
May-25 @ 04:53 UTC (37 minutes ago) Visual Flight Rules
Visibility Clouds
10 miles
  • Clear skies
Temperatures Readings
Current 12°C / 54°F
Dewpoint 10°C / 50°F
Humidity 88%
Altimeter 30.09" Hg
Pressure 1018.4 hPa
Elevation 302
METAR KELM 250453Z AUTO 00000KT 10SM CLR 12/10 A3009 RMK AO2 SLP184 T01170100 402890083
Observed Flight Rules
May-25 @ 04:53 UTC
(37 minutes ago)
VFR
Clouds
  • Clear skies
Temperature Dewpoint
12°C / 54°F 10°C / 50°F
Humidity Altimeter Pressure
88% 30.09" Hg 1018.4 hPa